sensor_id;sensor_type;location;lat;lon;timestamp;P1;durP1;ratioP1;P2;durP2;ratioP2
80711;SDS011;70078;51.596;5.678;2023-06-01T00:00:14;11.93;;;5.45;;
80711;SDS011;70078;51.596;5.678;2023-06-01T00:02:41;10.23;;;5.95;;
80711;SDS011;70078;51.596;5.678;2023-06-01T00:07:31;10.82;;;5.05;;
80711;SDS011;70078;51.596;5.678;2023-06-01T00:09:59;14.70;;;7.35;;
80711;SDS011;70078;51.596;5.678;2023-06-01T00:12:25;14.13;;;8.30;;
80711;SDS011;70078;51.596;5.678;2023-06-01T00:14:51;13.10;;;7.07;;
80711;SDS011;70078;51.596;5.678;2023-06-01T00:17:16;11.73;;;7.53;;
80711;SDS011;70078;51.596;5.678;2023-06-01T00:19:42;14.40;;;6.93;;
80711;SDS011;70078;51.596;5.678;2023-06-01T00:22:09;12.32;;;6.82;;
80711;SDS011;70078;51.596;5.678;2023-06-01T00:24:35;14.02;;;7.35;;
80711;SDS011;70078;51.596;5.678;2023-06-01T00:27:01;10.77;;;6.32;;
80711;SDS011;70078;51.596;5.678;2023-06-01T00:29:27;12.85;;;7.10;;
80711;SDS011;70078;51.596;5.678;2023-06-01T00:31:52;12.10;;;6.95;;
80711;SDS011;70078;51.596;5.678;2023-06-01T00:36:42;15.60;;;7.13;;
80711;SDS011;70078;51.596;5.678;2023-06-01T00:39:08;16.98;;;6.90;;
80711;SDS011;70078;51.596;5.678;2023-06-01T00:43:59;12.30;;;8.88;;
80711;SDS011;70078;51.596;5.678;2023-06-01T00:48:50;14.77;;;7.45;;
80711;SDS011;70078;51.596;5.678;2023-06-01T00:51:16;10.10;;;4.55;;
80711;SDS011;70078;51.596;5.678;2023-06-01T00:53:42;11.25;;;5.95;;
80711;SDS011;70078;51.596;5.678;2023-06-01T00:56:08;12.43;;;6.90;;
80711;SDS011;70078;51.596;5.678;2023-06-01T00:58:34;12.00;;;5.85;;
80711;SDS011;70078;51.596;5.678;2023-06-01T01:00:59;11.45;;;5.93;;
80711;SDS011;70078;51.596;5.678;2023-06-01T01:03:26;14.52;;;6.38;;
80711;SDS011;70078;51.596;5.678;2023-06-01T01:06:00;9.98;;;6.05;;
80711;SDS011;70078;51.596;5.678;2023-06-01T01:08:38;12.90;;;6.38;;
80711;SDS011;70078;51.596;5.678;2023-06-01T01:11:10;14.68;;;6.90;;
80711;SDS011;70078;51.596;5.678;2023-06-01T01:13:48;13.80;;;6.40;;
80711;SDS011;70078;51.596;5.678;2023-06-01T01:16:26;11.93;;;5.03;;
80711;SDS011;70078;51.596;5.678;2023-06-01T01:18:58;14.05;;;6.90;;
80711;SDS011;70078;51.596;5.678;2023-06-01T01:21:35;12.13;;;5.97;;
80711;SDS011;70078;51.596;5.678;2023-06-01T01:27:04;9.48;;;5.82;;
80711;SDS011;70078;51.596;5.678;2023-06-01T01:29:39;11.93;;;5.15;;
80711;SDS011;70078;51.596;5.678;2023-06-01T01:32:07;11.93;;;7.20;;
80711;SDS011;70078;51.596;5.678;2023-06-01T01:36:59;11.63;;;5.65;;
80711;SDS011;70078;51.596;5.678;2023-06-01T01:39:25;14.10;;;5.97;;
80711;SDS011;70078;51.596;5.678;2023-06-01T01:44:16;11.37;;;5.63;;
80711;SDS011;70078;51.596;5.678;2023-06-01T01:49:43;11.77;;;6.50;;
80711;SDS011;70078;51.596;5.678;2023-06-01T01:52:15;13.30;;;5.38;;
80711;SDS011;70078;51.596;5.678;2023-06-01T01:54:46;11.65;;;5.57;;
80711;SDS011;70078;51.596;5.678;2023-06-01T01:57:14;12.80;;;6.03;;
80711;SDS011;70078;51.596;5.678;2023-06-01T01:59:41;9.57;;;5.80;;
80711;SDS011;70078;51.596;5.678;2023-06-01T02:02:07;10.60;;;5.47;;
80711;SDS011;70078;51.596;5.678;2023-06-01T02:07:03;11.07;;;6.40;;
80711;SDS011;70078;51.596;5.678;2023-06-01T02:11:53;12.63;;;5.83;;
80711;SDS011;70078;51.596;5.678;2023-06-01T02:16:44;10.30;;;6.47;;
80711;SDS011;70078;51.596;5.678;2023-06-01T02:19:10;13.30;;;6.45;;
80711;SDS011;70078;51.596;5.678;2023-06-01T02:24:01;13.30;;;6.30;;
80711;SDS011;70078;51.596;5.678;2023-06-01T02:26:30;13.00;;;6.50;;
80711;SDS011;70078;51.596;5.678;2023-06-01T02:31:21;14.10;;;7.38;;
80711;SDS011;70078;51.596;5.678;2023-06-01T02:36:12;13.73;;;7.50;;
80711;SDS011;70078;51.596;5.678;2023-06-01T02:41:02;13.97;;;8.17;;
80711;SDS011;70078;51.596;5.678;2023-06-01T02:43:28;16.60;;;7.53;;
80711;SDS011;70078;51.596;5.678;2023-06-01T02:48:18;12.80;;;5.38;;
80711;SDS011;70078;51.596;5.678;2023-06-01T02:53:09;15.87;;;9.47;;
80711;SDS011;70078;51.596;5.678;2023-06-01T02:55:34;19.08;;;9.70;;
80711;SDS011;70078;51.596;5.678;2023-06-01T03:00:25;16.77;;;9.95;;
80711;SDS011;70078;51.596;5.678;2023-06-01T03:02:52;15.15;;;10.05;;
80711;SDS011;70078;51.596;5.678;2023-06-01T03:05:17;12.20;;;7.22;;
80711;SDS011;70078;51.596;5.678;2023-06-01T03:07:46;13.82;;;7.07;;
80711;SDS011;70078;51.596;5.678;2023-06-01T03:10:12;19.05;;;10.20;;
80711;SDS011;70078;51.596;5.678;2023-06-01T03:12:37;13.05;;;8.32;;
80711;SDS011;70078;51.596;5.678;2023-06-01T03:17:30;14.93;;;7.60;;
80711;SDS011;70078;51.596;5.678;2023-06-01T03:19:56;16.70;;;9.52;;
80711;SDS011;70078;51.596;5.678;2023-06-01T03:24:47;14.80;;;8.88;;
80711;SDS011;70078;51.596;5.678;2023-06-01T03:27:14;12.98;;;7.13;;
80711;SDS011;70078;51.596;5.678;2023-06-01T03:29:41;14.50;;;7.97;;
80711;SDS011;70078;51.596;5.678;2023-06-01T03:34:31;13.75;;;7.88;;
80711;SDS011;70078;51.596;5.678;2023-06-01T03:39:23;15.98;;;7.10;;
80711;SDS011;70078;51.596;5.678;2023-06-01T03:44:13;13.02;;;7.53;;
80711;SDS011;70078;51.596;5.678;2023-06-01T03:49:04;19.77;;;10.15;;
80711;SDS011;70078;51.596;5.678;2023-06-01T03:51:30;16.73;;;8.93;;
80711;SDS011;70078;51.596;5.678;2023-06-01T03:53:56;15.98;;;9.48;;
80711;SDS011;70078;51.596;5.678;2023-06-01T03:58:47;13.80;;;8.32;;
80711;SDS011;70078;51.596;5.678;2023-06-01T04:03:42;13.48;;;7.68;;
80711;SDS011;70078;51.596;5.678;2023-06-01T04:06:08;15.18;;;8.23;;
80711;SDS011;70078;51.596;5.678;2023-06-01T04:08:37;15.20;;;8.52;;
80711;SDS011;70078;51.596;5.678;2023-06-01T04:11:12;14.68;;;7.80;;
80711;SDS011;70078;51.596;5.678;2023-06-01T04:13:38;12.80;;;8.25;;
80711;SDS011;70078;51.596;5.678;2023-06-01T04:18:29;14.80;;;7.43;;
80711;SDS011;70078;51.596;5.678;2023-06-01T04:20:55;13.23;;;8.20;;
80711;SDS011;70078;51.596;5.678;2023-06-01T04:23:21;12.55;;;8.52;;
80711;SDS011;70078;51.596;5.678;2023-06-01T04:25:47;15.70;;;8.60;;
80711;SDS011;70078;51.596;5.678;2023-06-01T04:28:16;15.80;;;8.45;;
80711;SDS011;70078;51.596;5.678;2023-06-01T04:33:09;17.35;;;10.02;;
80711;SDS011;70078;51.596;5.678;2023-06-01T04:38:02;13.32;;;7.70;;
80711;SDS011;70078;51.596;5.678;2023-06-01T04:42:52;13.90;;;7.78;;
80711;SDS011;70078;51.596;5.678;2023-06-01T04:45:20;15.93;;;8.98;;
80711;SDS011;70078;51.596;5.678;2023-06-01T04:50:11;12.73;;;7.95;;
80711;SDS011;70078;51.596;5.678;2023-06-01T04:52:41;16.75;;;8.82;;
80711;SDS011;70078;51.596;5.678;2023-06-01T04:55:07;14.50;;;9.07;;
80711;SDS011;70078;51.596;5.678;2023-06-01T04:57:34;16.40;;;9.70;;
80711;SDS011;70078;51.596;5.678;2023-06-01T05:00:01;17.20;;;8.70;;
80711;SDS011;70078;51.596;5.678;2023-06-01T05:02:31;14.38;;;8.27;;
80711;SDS011;70078;51.596;5.678;2023-06-01T05:07:21;13.83;;;7.77;;
80711;SDS011;70078;51.596;5.678;2023-06-01T05:09:49;16.58;;;8.77;;
80711;SDS011;70078;51.596;5.678;2023-06-01T05:14:39;12.87;;;6.73;;
80711;SDS011;70078;51.596;5.678;2023-06-01T05:19:30;12.77;;;8.70;;
80711;SDS011;70078;51.596;5.678;2023-06-01T05:24:21;13.97;;;7.50;;
80711;SDS011;70078;51.596;5.678;2023-06-01T05:29:11;11.57;;;7.43;;
80711;SDS011;70078;51.596;5.678;2023-06-01T05:31:36;12.85;;;8.15;;
80711;SDS011;70078;51.596;5.678;2023-06-01T05:34:02;13.23;;;7.65;;
80711;SDS011;70078;51.596;5.678;2023-06-01T05:38:52;11.70;;;6.22;;
80711;SDS011;70078;51.596;5.678;2023-06-01T05:43:43;13.47;;;7.43;;
80711;SDS011;70078;51.596;5.678;2023-06-01T05:48:33;13.70;;;8.10;;
80711;SDS011;70078;51.596;5.678;2023-06-01T05:53:24;12.25;;;6.10;;
80711;SDS011;70078;51.596;5.678;2023-06-01T05:58:18;12.45;;;6.03;;
80711;SDS011;70078;51.596;5.678;2023-06-01T06:03:09;15.30;;;7.38;;
80711;SDS011;70078;51.596;5.678;2023-06-01T06:05:34;11.63;;;6.47;;
80711;SDS011;70078;51.596;5.678;2023-06-01T06:07:59;13.82;;;7.57;;
80711;SDS011;70078;51.596;5.678;2023-06-01T06:10:26;13.15;;;6.60;;
80711;SDS011;70078;51.596;5.678;2023-06-01T06:15:17;15.50;;;7.13;;
80711;SDS011;70078;51.596;5.678;2023-06-01T06:17:42;13.45;;;7.53;;
80711;SDS011;70078;51.596;5.678;2023-06-01T06:22:33;10.27;;;5.55;;
80711;SDS011;70078;51.596;5.678;2023-06-01T06:24:59;13.77;;;6.40;;
80711;SDS011;70078;51.596;5.678;2023-06-01T06:27:25;12.30;;;6.75;;
80711;SDS011;70078;51.596;5.678;2023-06-01T06:32:15;14.23;;;6.30;;
80711;SDS011;70078;51.596;5.678;2023-06-01T06:34:41;9.55;;;5.00;;
80711;SDS011;70078;51.596;5.678;2023-06-01T06:39:32;11.73;;;6.80;;
80711;SDS011;70078;51.596;5.678;2023-06-01T06:41:58;13.38;;;6.20;;
80711;SDS011;70078;51.596;5.678;2023-06-01T06:44:26;12.93;;;6.85;;
80711;SDS011;70078;51.596;5.678;2023-06-01T06:49:16;8.45;;;4.60;;
80711;SDS011;70078;51.596;5.678;2023-06-01T06:51:43;12.68;;;6.57;;
80711;SDS011;70078;51.596;5.678;2023-06-01T06:54:08;13.50;;;7.32;;
80711;SDS011;70078;51.596;5.678;2023-06-01T06:56:34;11.15;;;7.07;;
80711;SDS011;70078;51.596;5.678;2023-06-01T06:58:59;12.27;;;6.78;;
80711;SDS011;70078;51.596;5.678;2023-06-01T07:01:24;12.48;;;7.30;;
80711;SDS011;70078;51.596;5.678;2023-06-01T07:03:50;13.88;;;7.43;;
80711;SDS011;70078;51.596;5.678;2023-06-01T07:06:17;14.00;;;6.55;;
80711;SDS011;70078;51.596;5.678;2023-06-01T07:08:43;12.70;;;6.85;;
80711;SDS011;70078;51.596;5.678;2023-06-01T07:11:09;15.02;;;7.70;;
80711;SDS011;70078;51.596;5.678;2023-06-01T07:13:34;13.30;;;7.00;;
80711;SDS011;70078;51.596;5.678;2023-06-01T07:16:00;12.75;;;7.22;;
80711;SDS011;70078;51.596;5.678;2023-06-01T07:18:26;11.55;;;7.40;;
80711;SDS011;70078;51.596;5.678;2023-06-01T07:20:51;13.73;;;6.78;;
80711;SDS011;70078;51.596;5.678;2023-06-01T07:23:17;11.75;;;7.20;;
80711;SDS011;70078;51.596;5.678;2023-06-01T07:25:42;14.98;;;7.20;;
80711;SDS011;70078;51.596;5.678;2023-06-01T07:28:07;14.75;;;7.50;;
80711;SDS011;70078;51.596;5.678;2023-06-01T07:30:38;14.18;;;7.20;;
80711;SDS011;70078;51.596;5.678;2023-06-01T07:33:03;13.88;;;6.97;;
80711;SDS011;70078;51.596;5.678;2023-06-01T07:35:29;15.07;;;7.43;;
80711;SDS011;70078;51.596;5.678;2023-06-01T07:37:54;11.40;;;6.55;;
80711;SDS011;70078;51.596;5.678;2023-06-01T07:40:21;13.35;;;6.10;;
80711;SDS011;70078;51.596;5.678;2023-06-01T07:42:46;13.10;;;6.25;;
80711;SDS011;70078;51.596;5.678;2023-06-01T07:45:12;12.48;;;6.82;;
80711;SDS011;70078;51.596;5.678;2023-06-01T07:47:38;10.52;;;5.57;;
80711;SDS011;70078;51.596;5.678;2023-06-01T07:50:04;13.48;;;7.15;;
80711;SDS011;70078;51.596;5.678;2023-06-01T07:52:29;14.73;;;7.07;;
80711;SDS011;70078;51.596;5.678;2023-06-01T07:54:56;18.90;;;8.02;;
80711;SDS011;70078;51.596;5.678;2023-06-01T07:57:21;13.23;;;7.65;;
80711;SDS011;70078;51.596;5.678;2023-06-01T07:59:47;13.38;;;7.70;;
80711;SDS011;70078;51.596;5.678;2023-06-01T08:02:12;14.50;;;7.35;;
80711;SDS011;70078;51.596;5.678;2023-06-01T08:04:38;12.15;;;7.15;;
80711;SDS011;70078;51.596;5.678;2023-06-01T08:07:04;14.23;;;6.90;;
80711;SDS011;70078;51.596;5.678;2023-06-01T08:09:31;9.52;;;5.55;;
80711;SDS011;70078;51.596;5.678;2023-06-01T08:11:57;13.52;;;6.43;;
80711;SDS011;70078;51.596;5.678;2023-06-01T08:14:22;15.20;;;7.43;;
80711;SDS011;70078;51.596;5.678;2023-06-01T08:16:48;12.50;;;6.97;;
80711;SDS011;70078;51.596;5.678;2023-06-01T08:19:13;14.65;;;7.30;;
80711;SDS011;70078;51.596;5.678;2023-06-01T08:21:39;16.95;;;7.82;;
80711;SDS011;70078;51.596;5.678;2023-06-01T08:24:06;15.30;;;7.78;;
80711;SDS011;70078;51.596;5.678;2023-06-01T08:26:33;16.40;;;7.30;;
80711;SDS011;70078;51.596;5.678;2023-06-01T08:28:59;14.63;;;7.25;;
80711;SDS011;70078;51.596;5.678;2023-06-01T08:31:25;11.63;;;7.35;;
80711;SDS011;70078;51.596;5.678;2023-06-01T08:33:51;17.15;;;8.65;;
80711;SDS011;70078;51.596;5.678;2023-06-01T08:36:18;13.70;;;7.90;;
80711;SDS011;70078;51.596;5.678;2023-06-01T08:38:44;12.15;;;7.55;;
80711;SDS011;70078;51.596;5.678;2023-06-01T08:41:28;14.57;;;7.47;;
80711;SDS011;70078;51.596;5.678;2023-06-01T08:44:03;12.70;;;8.05;;
80711;SDS011;70078;51.596;5.678;2023-06-01T08:46:30;15.52;;;7.57;;
80711;SDS011;70078;51.596;5.678;2023-06-01T08:48:57;12.48;;;6.97;;
80711;SDS011;70078;51.596;5.678;2023-06-01T08:51:24;16.85;;;7.93;;
80711;SDS011;70078;51.596;5.678;2023-06-01T08:53:50;15.07;;;8.05;;
80711;SDS011;70078;51.596;5.678;2023-06-01T08:56:18;12.90;;;7.55;;
80711;SDS011;70078;51.596;5.678;2023-06-01T08:58:44;14.40;;;7.80;;
80711;SDS011;70078;51.596;5.678;2023-06-01T09:01:13;17.02;;;8.82;;
80711;SDS011;70078;51.596;5.678;2023-06-01T09:03:43;13.85;;;7.93;;
80711;SDS011;70078;51.596;5.678;2023-06-01T09:06:09;15.52;;;8.25;;
80711;SDS011;70078;51.596;5.678;2023-06-01T09:08:35;13.00;;;7.90;;
80711;SDS011;70078;51.596;5.678;2023-06-01T09:11:00;13.65;;;8.07;;
80711;SDS011;70078;51.596;5.678;2023-06-01T09:13:35;16.52;;;7.95;;
80711;SDS011;70078;51.596;5.678;2023-06-01T09:16:02;13.52;;;9.02;;
80711;SDS011;70078;51.596;5.678;2023-06-01T09:18:28;12.48;;;6.85;;
80711;SDS011;70078;51.596;5.678;2023-06-01T09:20:53;11.43;;;7.50;;
80711;SDS011;70078;51.596;5.678;2023-06-01T09:23:27;14.02;;;7.80;;
80711;SDS011;70078;51.596;5.678;2023-06-01T09:26:09;11.93;;;7.97;;
80711;SDS011;70078;51.596;5.678;2023-06-01T09:28:51;12.32;;;7.90;;
80711;SDS011;70078;51.596;5.678;2023-06-01T09:31:37;15.73;;;8.25;;
80711;SDS011;70078;51.596;5.678;2023-06-01T09:34:09;14.68;;;7.93;;
80711;SDS011;70078;51.596;5.678;2023-06-01T09:36:36;13.90;;;7.35;;
80711;SDS011;70078;51.596;5.678;2023-06-01T09:39:06;14.40;;;8.05;;
80711;SDS011;70078;51.596;5.678;2023-06-01T09:44:10;11.98;;;7.20;;
80711;SDS011;70078;51.596;5.678;2023-06-01T09:46:49;16.95;;;7.28;;
80711;SDS011;70078;51.596;5.678;2023-06-01T09:49:22;10.75;;;7.75;;
80711;SDS011;70078;51.596;5.678;2023-06-01T09:52:13;13.05;;;7.05;;
80711;SDS011;70078;51.596;5.678;2023-06-01T09:54:49;15.43;;;7.75;;
80711;SDS011;70078;51.596;5.678;2023-06-01T09:57:25;17.83;;;6.95;;
80711;SDS011;70078;51.596;5.678;2023-06-01T09:59:51;16.13;;;7.80;;
80711;SDS011;70078;51.596;5.678;2023-06-01T10:02:17;24.88;;;9.23;;
80711;SDS011;70078;51.596;5.678;2023-06-01T10:04:48;17.10;;;7.82;;
80711;SDS011;70078;51.596;5.678;2023-06-01T10:07:16;11.82;;;7.82;;
80711;SDS011;70078;51.596;5.678;2023-06-01T10:09:43;13.73;;;8.05;;
80711;SDS011;70078;51.596;5.678;2023-06-01T10:12:10;11.38;;;7.00;;
80711;SDS011;70078;51.596;5.678;2023-06-01T10:14:36;11.05;;;7.85;;
80711;SDS011;70078;51.596;5.678;2023-06-01T10:17:04;12.95;;;7.47;;
80711;SDS011;70078;51.596;5.678;2023-06-01T10:19:30;12.73;;;6.97;;
80711;SDS011;70078;51.596;5.678;2023-06-01T10:21:58;9.40;;;5.55;;
80711;SDS011;70078;51.596;5.678;2023-06-01T10:24:25;12.52;;;7.15;;
80711;SDS011;70078;51.596;5.678;2023-06-01T10:26:55;12.43;;;6.60;;
80711;SDS011;70078;51.596;5.678;2023-06-01T10:29:22;13.15;;;7.35;;
80711;SDS011;70078;51.596;5.678;2023-06-01T10:31:49;10.45;;;6.55;;
80711;SDS011;70078;51.596;5.678;2023-06-01T10:34:16;9.88;;;6.80;;
80711;SDS011;70078;51.596;5.678;2023-06-01T10:39:31;10.93;;;6.93;;
80711;SDS011;70078;51.596;5.678;2023-06-01T10:42:42;10.55;;;7.13;;
80711;SDS011;70078;51.596;5.678;2023-06-01T10:52:23;11.82;;;6.15;;
80711;SDS011;70078;51.596;5.678;2023-06-01T10:54:57;13.40;;;7.47;;
80711;SDS011;70078;51.596;5.678;2023-06-01T10:57:44;9.98;;;6.63;;
80711;SDS011;70078;51.596;5.678;2023-06-01T11:00:23;14.60;;;6.97;;
80711;SDS011;70078;51.596;5.678;2023-06-01T11:02:54;13.05;;;7.68;;
80711;SDS011;70078;51.596;5.678;2023-06-01T11:08:06;10.45;;;7.20;;
80711;SDS011;70078;51.596;5.678;2023-06-01T11:13:31;12.18;;;6.30;;
80711;SDS011;70078;51.596;5.678;2023-06-01T11:21:48;11.23;;;6.85;;
80711;SDS011;70078;51.596;5.678;2023-06-01T11:23:57;15.70;;;7.95;;
80711;SDS011;70078;51.596;5.678;2023-06-01T11:26:34;12.85;;;8.52;;
80711;SDS011;70078;51.596;5.678;2023-06-01T11:29:04;9.52;;;6.25;;
80711;SDS011;70078;51.596;5.678;2023-06-01T11:31:42;13.45;;;7.60;;
80711;SDS011;70078;51.596;5.678;2023-06-01T11:34:10;7.57;;;4.80;;
80711;SDS011;70078;51.596;5.678;2023-06-01T11:36:41;10.45;;;7.10;;
80711;SDS011;70078;51.596;5.678;2023-06-01T11:39:29;11.85;;;6.65;;
80711;SDS011;70078;51.596;5.678;2023-06-01T11:42:07;10.15;;;6.72;;
80711;SDS011;70078;51.596;5.678;2023-06-01T11:44:35;12.05;;;6.93;;
80711;SDS011;70078;51.596;5.678;2023-06-01T11:47:02;14.95;;;7.45;;
80711;SDS011;70078;51.596;5.678;2023-06-01T11:49:31;11.13;;;6.72;;
80711;SDS011;70078;51.596;5.678;2023-06-01T11:52:07;11.25;;;6.35;;
80711;SDS011;70078;51.596;5.678;2023-06-01T11:54:33;13.15;;;6.63;;
80711;SDS011;70078;51.596;5.678;2023-06-01T11:56:59;11.98;;;6.65;;
80711;SDS011;70078;51.596;5.678;2023-06-01T11:59:32;9.77;;;5.82;;
80711;SDS011;70078;51.596;5.678;2023-06-01T12:02:02;9.27;;;6.25;;
80711;SDS011;70078;51.596;5.678;2023-06-01T12:04:27;12.20;;;7.00;;
80711;SDS011;70078;51.596;5.678;2023-06-01T12:07:03;13.05;;;6.70;;
80711;SDS011;70078;51.596;5.678;2023-06-01T12:09:30;9.23;;;6.38;;
80711;SDS011;70078;51.596;5.678;2023-06-01T12:11:56;10.10;;;5.97;;
80711;SDS011;70078;51.596;5.678;2023-06-01T12:14:22;10.82;;;6.00;;
80711;SDS011;70078;51.596;5.678;2023-06-01T12:19:23;12.05;;;6.38;;
80711;SDS011;70078;51.596;5.678;2023-06-01T12:21:50;9.25;;;6.53;;
80711;SDS011;70078;51.596;5.678;2023-06-01T12:24:27;13.93;;;6.22;;
80711;SDS011;70078;51.596;5.678;2023-06-01T12:26:54;11.63;;;6.25;;
80711;SDS011;70078;51.596;5.678;2023-06-01T12:29:39;11.60;;;7.30;;
80711;SDS011;70078;51.596;5.678;2023-06-01T12:32:06;12.68;;;5.47;;
80711;SDS011;70078;51.596;5.678;2023-06-01T12:34:33;11.48;;;5.72;;
80711;SDS011;70078;51.596;5.678;2023-06-01T12:36:58;11.25;;;6.30;;
80711;SDS011;70078;51.596;5.678;2023-06-01T12:39:43;10.30;;;6.20;;
80711;SDS011;70078;51.596;5.678;2023-06-01T12:42:09;8.73;;;6.40;;
80711;SDS011;70078;51.596;5.678;2023-06-01T12:44:36;13.57;;;6.35;;
80711;SDS011;70078;51.596;5.678;2023-06-01T12:47:02;11.25;;;5.57;;
80711;SDS011;70078;51.596;5.678;2023-06-01T12:49:29;8.45;;;5.35;;
80711;SDS011;70078;51.596;5.678;2023-06-01T12:51:55;10.98;;;6.40;;
80711;SDS011;70078;51.596;5.678;2023-06-01T12:54:20;8.95;;;6.03;;
80711;SDS011;70078;51.596;5.678;2023-06-01T12:56:49;10.52;;;6.10;;
80711;SDS011;70078;51.596;5.678;2023-06-01T12:59:16;11.13;;;6.10;;
80711;SDS011;70078;51.596;5.678;2023-06-01T13:01:44;9.45;;;5.50;;
80711;SDS011;70078;51.596;5.678;2023-06-01T13:04:12;8.88;;;5.40;;
80711;SDS011;70078;51.596;5.678;2023-06-01T13:06:37;9.75;;;5.22;;
80711;SDS011;70078;51.596;5.678;2023-06-01T13:09:04;11.40;;;5.68;;
80711;SDS011;70078;51.596;5.678;2023-06-01T13:11:29;13.02;;;7.60;;
80711;SDS011;70078;51.596;5.678;2023-06-01T13:13:55;10.93;;;6.05;;
80711;SDS011;70078;51.596;5.678;2023-06-01T13:16:22;10.98;;;7.18;;
80711;SDS011;70078;51.596;5.678;2023-06-01T13:18:47;11.43;;;6.88;;
80711;SDS011;70078;51.596;5.678;2023-06-01T13:21:15;9.98;;;6.30;;
80711;SDS011;70078;51.596;5.678;2023-06-01T13:23:41;11.10;;;5.47;;
80711;SDS011;70078;51.596;5.678;2023-06-01T13:26:07;11.80;;;6.47;;
80711;SDS011;70078;51.596;5.678;2023-06-01T13:28:33;10.85;;;6.30;;
80711;SDS011;70078;51.596;5.678;2023-06-01T13:30:58;15.40;;;7.30;;
80711;SDS011;70078;51.596;5.678;2023-06-01T13:33:24;12.80;;;6.07;;
80711;SDS011;70078;51.596;5.678;2023-06-01T13:35:49;9.85;;;7.03;;
80711;SDS011;70078;51.596;5.678;2023-06-01T13:38:14;12.18;;;6.35;;
80711;SDS011;70078;51.596;5.678;2023-06-01T13:40:40;12.02;;;6.20;;
80711;SDS011;70078;51.596;5.678;2023-06-01T13:43:05;11.00;;;6.32;;
80711;SDS011;70078;51.596;5.678;2023-06-01T13:45:31;10.95;;;6.55;;
80711;SDS011;70078;51.596;5.678;2023-06-01T13:47:56;9.60;;;6.15;;
80711;SDS011;70078;51.596;5.678;2023-06-01T13:50:23;11.70;;;6.38;;
80711;SDS011;70078;51.596;5.678;2023-06-01T13:52:49;10.35;;;6.50;;
80711;SDS011;70078;51.596;5.678;2023-06-01T13:55:14;10.88;;;6.82;;
80711;SDS011;70078;51.596;5.678;2023-06-01T13:57:40;11.30;;;6.68;;
80711;SDS011;70078;51.596;5.678;2023-06-01T14:00:06;13.23;;;6.88;;
80711;SDS011;70078;51.596;5.678;2023-06-01T14:02:33;11.40;;;6.10;;
80711;SDS011;70078;51.596;5.678;2023-06-01T14:04:59;9.70;;;5.28;;
80711;SDS011;70078;51.596;5.678;2023-06-01T14:07:25;11.13;;;6.68;;
80711;SDS011;70078;51.596;5.678;2023-06-01T14:09:50;10.75;;;6.35;;
80711;SDS011;70078;51.596;5.678;2023-06-01T14:12:16;9.40;;;5.80;;
80711;SDS011;70078;51.596;5.678;2023-06-01T14:14:41;11.30;;;6.43;;
80711;SDS011;70078;51.596;5.678;2023-06-01T14:17:06;10.35;;;6.55;;
80711;SDS011;70078;51.596;5.678;2023-06-01T14:19:32;9.10;;;5.63;;
80711;SDS011;70078;51.596;5.678;2023-06-01T14:21:57;10.65;;;5.80;;
80711;SDS011;70078;51.596;5.678;2023-06-01T14:24:22;10.55;;;6.22;;
80711;SDS011;70078;51.596;5.678;2023-06-01T14:26:48;10.85;;;6.18;;
80711;SDS011;70078;51.596;5.678;2023-06-01T14:29:13;10.85;;;6.18;;
80711;SDS011;70078;51.596;5.678;2023-06-01T14:31:38;12.13;;;5.90;;
80711;SDS011;70078;51.596;5.678;2023-06-01T14:34:04;13.70;;;6.00;;
80711;SDS011;70078;51.596;5.678;2023-06-01T14:36:29;10.82;;;7.28;;
80711;SDS011;70078;51.596;5.678;2023-06-01T14:38:55;10.20;;;5.05;;
80711;SDS011;70078;51.596;5.678;2023-06-01T14:41:20;7.88;;;4.88;;
80711;SDS011;70078;51.596;5.678;2023-06-01T14:43:46;12.48;;;5.57;;
80711;SDS011;70078;51.596;5.678;2023-06-01T14:46:11;9.68;;;5.00;;
80711;SDS011;70078;51.596;5.678;2023-06-01T14:48:36;14.88;;;5.57;;
80711;SDS011;70078;51.596;5.678;2023-06-01T14:51:02;8.30;;;4.78;;
80711;SDS011;70078;51.596;5.678;2023-06-01T14:53:27;7.32;;;5.20;;
80711;SDS011;70078;51.596;5.678;2023-06-01T14:55:53;13.18;;;5.20;;
80711;SDS011;70078;51.596;5.678;2023-06-01T14:58:18;8.77;;;5.70;;
80711;SDS011;70078;51.596;5.678;2023-06-01T15:00:43;7.93;;;5.63;;
80711;SDS011;70078;51.596;5.678;2023-06-01T15:03:09;8.30;;;5.40;;
80711;SDS011;70078;51.596;5.678;2023-06-01T15:05:35;10.07;;;6.70;;
80711;SDS011;70078;51.596;5.678;2023-06-01T15:08:00;8.35;;;5.72;;
80711;SDS011;70078;51.596;5.678;2023-06-01T15:10:26;9.07;;;5.63;;
80711;SDS011;70078;51.596;5.678;2023-06-01T15:12:51;11.43;;;5.25;;
80711;SDS011;70078;51.596;5.678;2023-06-01T15:15:17;8.70;;;5.80;;
80711;SDS011;70078;51.596;5.678;2023-06-01T15:17:43;9.70;;;5.93;;
80711;SDS011;70078;51.596;5.678;2023-06-01T15:20:08;8.25;;;5.75;;
80711;SDS011;70078;51.596;5.678;2023-06-01T15:22:34;10.93;;;5.53;;
80711;SDS011;70078;51.596;5.678;2023-06-01T15:25:00;9.18;;;5.00;;
80711;SDS011;70078;51.596;5.678;2023-06-01T15:27:25;10.05;;;5.57;;
80711;SDS011;70078;51.596;5.678;2023-06-01T15:29:51;8.98;;;4.72;;
80711;SDS011;70078;51.596;5.678;2023-06-01T15:32:16;7.82;;;5.15;;
80711;SDS011;70078;51.596;5.678;2023-06-01T15:34:41;10.27;;;5.90;;
80711;SDS011;70078;51.596;5.678;2023-06-01T15:37:07;8.63;;;4.15;;
80711;SDS011;70078;51.596;5.678;2023-06-01T15:39:34;7.25;;;4.80;;
80711;SDS011;70078;51.596;5.678;2023-06-01T15:42:00;10.95;;;5.13;;
80711;SDS011;70078;51.596;5.678;2023-06-01T15:44:28;10.93;;;4.82;;
80711;SDS011;70078;51.596;5.678;2023-06-01T15:46:54;7.72;;;4.93;;
80711;SDS011;70078;51.596;5.678;2023-06-01T15:49:19;9.75;;;5.35;;
80711;SDS011;70078;51.596;5.678;2023-06-01T15:51:44;9.52;;;5.03;;
80711;SDS011;70078;51.596;5.678;2023-06-01T15:54:10;10.30;;;4.93;;
80711;SDS011;70078;51.596;5.678;2023-06-01T15:56:35;9.10;;;4.65;;
80711;SDS011;70078;51.596;5.678;2023-06-01T15:59:00;8.63;;;4.70;;
80711;SDS011;70078;51.596;5.678;2023-06-01T16:01:26;8.48;;;5.07;;
80711;SDS011;70078;51.596;5.678;2023-06-01T16:03:51;8.57;;;4.63;;
80711;SDS011;70078;51.596;5.678;2023-06-01T16:06:16;8.65;;;4.45;;
80711;SDS011;70078;51.596;5.678;2023-06-01T16:08:42;8.32;;;4.88;;
80711;SDS011;70078;51.596;5.678;2023-06-01T16:11:07;10.00;;;4.53;;
80711;SDS011;70078;51.596;5.678;2023-06-01T16:13:32;9.02;;;4.82;;
80711;SDS011;70078;51.596;5.678;2023-06-01T16:15:58;10.70;;;4.75;;
80711;SDS011;70078;51.596;5.678;2023-06-01T16:18:24;8.60;;;4.55;;
80711;SDS011;70078;51.596;5.678;2023-06-01T16:20:49;7.47;;;4.60;;
80711;SDS011;70078;51.596;5.678;2023-06-01T16:23:15;8.50;;;3.72;;
80711;SDS011;70078;51.596;5.678;2023-06-01T16:25:40;8.55;;;4.50;;
80711;SDS011;70078;51.596;5.678;2023-06-01T16:28:06;6.78;;;4.60;;
80711;SDS011;70078;51.596;5.678;2023-06-01T16:30:31;7.85;;;4.03;;
80711;SDS011;70078;51.596;5.678;2023-06-01T16:32:56;8.35;;;4.07;;
80711;SDS011;70078;51.596;5.678;2023-06-01T16:35:22;4.97;;;3.70;;
80711;SDS011;70078;51.596;5.678;2023-06-01T16:37:47;5.22;;;3.10;;
80711;SDS011;70078;51.596;5.678;2023-06-01T16:40:14;5.68;;;3.70;;
80711;SDS011;70078;51.596;5.678;2023-06-01T16:42:42;6.53;;;4.18;;
80711;SDS011;70078;51.596;5.678;2023-06-01T16:45:07;8.82;;;4.00;;
80711;SDS011;70078;51.596;5.678;2023-06-01T16:47:33;7.10;;;3.78;;
80711;SDS011;70078;51.596;5.678;2023-06-01T16:49:58;7.60;;;3.47;;
80711;SDS011;70078;51.596;5.678;2023-06-01T16:52:23;4.35;;;3.10;;
80711;SDS011;70078;51.596;5.678;2023-06-01T16:54:49;8.93;;;3.95;;
80711;SDS011;70078;51.596;5.678;2023-06-01T16:57:17;11.18;;;3.83;;